sensor_id;sensor_type;location;lat;lon;timestamp;P1;durP1;ratioP1;P2;durP2;ratioP2
17631;SDS011;8934;51.194;17.150;2023-08-30T00:00:01;7.35;;;5.00;;
17631;SDS011;8934;51.194;17.150;2023-08-30T00:02:51;6.95;;;5.45;;
17631;SDS011;8934;51.194;17.150;2023-08-30T00:05:38;7.18;;;5.55;;
17631;SDS011;8934;51.194;17.150;2023-08-30T00:08:27;7.28;;;5.18;;
17631;SDS011;8934;51.194;17.150;2023-08-30T00:11:14;6.05;;;5.10;;
17631;SDS011;8934;51.194;17.150;2023-08-30T00:14:02;6.38;;;5.40;;
17631;SDS011;8934;51.194;17.150;2023-08-30T00:16:52;7.53;;;5.38;;
17631;SDS011;8934;51.194;17.150;2023-08-30T00:19:40;5.93;;;4.70;;
17631;SDS011;8934;51.194;17.150;2023-08-30T00:22:28;6.32;;;5.00;;
17631;SDS011;8934;51.194;17.150;2023-08-30T00:25:17;8.38;;;5.70;;
17631;SDS011;8934;51.194;17.150;2023-08-30T00:28:04;7.65;;;5.90;;
17631;SDS011;8934;51.194;17.150;2023-08-30T00:30:54;6.78;;;5.40;;
17631;SDS011;8934;51.194;17.150;2023-08-30T00:33:43;7.60;;;6.05;;
17631;SDS011;8934;51.194;17.150;2023-08-30T00:36:31;6.63;;;4.80;;
17631;SDS011;8934;51.194;17.150;2023-08-30T00:39:18;6.68;;;4.82;;
17631;SDS011;8934;51.194;17.150;2023-08-30T00:42:06;5.60;;;4.68;;
17631;SDS011;8934;51.194;17.150;2023-08-30T00:44:54;6.13;;;4.72;;
17631;SDS011;8934;51.194;17.150;2023-08-30T00:47:42;5.40;;;4.25;;
17631;SDS011;8934;51.194;17.150;2023-08-30T00:50:31;5.70;;;4.80;;
17631;SDS011;8934;51.194;17.150;2023-08-30T00:53:19;7.75;;;4.70;;
17631;SDS011;8934;51.194;17.150;2023-08-30T00:56:07;5.30;;;4.50;;
17631;SDS011;8934;51.194;17.150;2023-08-30T00:58:55;6.50;;;4.30;;
17631;SDS011;8934;51.194;17.150;2023-08-30T01:01:43;5.82;;;4.28;;
17631;SDS011;8934;51.194;17.150;2023-08-30T01:04:32;6.53;;;4.50;;
17631;SDS011;8934;51.194;17.150;2023-08-30T01:07:21;5.57;;;3.85;;
17631;SDS011;8934;51.194;17.150;2023-08-30T01:10:13;6.25;;;3.90;;
17631;SDS011;8934;51.194;17.150;2023-08-30T01:13:03;5.13;;;3.80;;
17631;SDS011;8934;51.194;17.150;2023-08-30T01:16:00;4.63;;;3.60;;
17631;SDS011;8934;51.194;17.150;2023-08-30T01:18:48;4.45;;;3.33;;
17631;SDS011;8934;51.194;17.150;2023-08-30T01:21:38;5.22;;;3.95;;
17631;SDS011;8934;51.194;17.150;2023-08-30T01:24:40;5.57;;;3.92;;
17631;SDS011;8934;51.194;17.150;2023-08-30T01:27:33;4.97;;;3.63;;
17631;SDS011;8934;51.194;17.150;2023-08-30T01:30:23;4.28;;;3.30;;
17631;SDS011;8934;51.194;17.150;2023-08-30T01:33:13;4.32;;;3.50;;
17631;SDS011;8934;51.194;17.150;2023-08-30T01:36:02;5.35;;;3.33;;
17631;SDS011;8934;51.194;17.150;2023-08-30T01:38:51;4.13;;;2.88;;
17631;SDS011;8934;51.194;17.150;2023-08-30T01:41:42;4.75;;;2.92;;
17631;SDS011;8934;51.194;17.150;2023-08-30T01:44:32;3.83;;;3.08;;
17631;SDS011;8934;51.194;17.150;2023-08-30T01:47:21;4.05;;;3.00;;
17631;SDS011;8934;51.194;17.150;2023-08-30T01:50:09;3.20;;;2.90;;
17631;SDS011;8934;51.194;17.150;2023-08-30T01:52:58;3.10;;;2.75;;
17631;SDS011;8934;51.194;17.150;2023-08-30T01:55:47;4.30;;;2.80;;
17631;SDS011;8934;51.194;17.150;2023-08-30T01:58:34;4.18;;;3.40;;
17631;SDS011;8934;51.194;17.150;2023-08-30T02:01:24;3.70;;;3.17;;
17631;SDS011;8934;51.194;17.150;2023-08-30T02:04:11;4.10;;;3.45;;
17631;SDS011;8934;51.194;17.150;2023-08-30T02:07:00;5.00;;;4.18;;
17631;SDS011;8934;51.194;17.150;2023-08-30T02:09:53;6.05;;;4.03;;
17631;SDS011;8934;51.194;17.150;2023-08-30T02:12:46;4.75;;;4.25;;
17631;SDS011;8934;51.194;17.150;2023-08-30T02:15:35;4.88;;;4.20;;
17631;SDS011;8934;51.194;17.150;2023-08-30T02:18:26;6.10;;;4.57;;
17631;SDS011;8934;51.194;17.150;2023-08-30T02:21:15;5.35;;;4.30;;
17631;SDS011;8934;51.194;17.150;2023-08-30T02:24:03;5.47;;;4.22;;
17631;SDS011;8934;51.194;17.150;2023-08-30T02:26:51;4.45;;;3.83;;
17631;SDS011;8934;51.194;17.150;2023-08-30T02:29:39;5.25;;;4.30;;
17631;SDS011;8934;51.194;17.150;2023-08-30T02:32:26;5.65;;;4.22;;
17631;SDS011;8934;51.194;17.150;2023-08-30T02:35:16;5.38;;;4.65;;
17631;SDS011;8934;51.194;17.150;2023-08-30T02:38:03;4.93;;;4.10;;
17631;SDS011;8934;51.194;17.150;2023-08-30T02:40:52;4.68;;;4.13;;
17631;SDS011;8934;51.194;17.150;2023-08-30T02:43:39;4.95;;;4.28;;
17631;SDS011;8934;51.194;17.150;2023-08-30T02:46:27;4.80;;;4.30;;
17631;SDS011;8934;51.194;17.150;2023-08-30T02:49:14;5.18;;;4.20;;
17631;SDS011;8934;51.194;17.150;2023-08-30T02:52:04;5.50;;;4.13;;
17631;SDS011;8934;51.194;17.150;2023-08-30T02:54:53;4.75;;;4.22;;
17631;SDS011;8934;51.194;17.150;2023-08-30T02:57:41;4.22;;;3.70;;
17631;SDS011;8934;51.194;17.150;2023-08-30T03:00:28;5.35;;;4.43;;
17631;SDS011;8934;51.194;17.150;2023-08-30T03:03:17;5.28;;;4.78;;
17631;SDS011;8934;51.194;17.150;2023-08-30T03:06:05;5.95;;;4.90;;
17631;SDS011;8934;51.194;17.150;2023-08-30T03:08:54;4.85;;;4.32;;
17631;SDS011;8934;51.194;17.150;2023-08-30T03:11:43;4.72;;;4.32;;
17631;SDS011;8934;51.194;17.150;2023-08-30T03:14:30;7.03;;;5.13;;
17631;SDS011;8934;51.194;17.150;2023-08-30T03:17:18;6.45;;;4.80;;
17631;SDS011;8934;51.194;17.150;2023-08-30T03:20:06;6.32;;;5.03;;
17631;SDS011;8934;51.194;17.150;2023-08-30T03:22:55;4.82;;;4.32;;
17631;SDS011;8934;51.194;17.150;2023-08-30T03:25:45;6.20;;;4.68;;
17631;SDS011;8934;51.194;17.150;2023-08-30T03:28:33;6.40;;;5.40;;
17631;SDS011;8934;51.194;17.150;2023-08-30T03:31:21;5.88;;;5.28;;
17631;SDS011;8934;51.194;17.150;2023-08-30T03:34:09;5.03;;;4.20;;
17631;SDS011;8934;51.194;17.150;2023-08-30T03:36:57;4.13;;;3.70;;
17631;SDS011;8934;51.194;17.150;2023-08-30T03:39:44;5.55;;;4.50;;
17631;SDS011;8934;51.194;17.150;2023-08-30T03:42:34;4.22;;;3.75;;
17631;SDS011;8934;51.194;17.150;2023-08-30T03:45:22;4.18;;;3.45;;
17631;SDS011;8934;51.194;17.150;2023-08-30T03:48:10;4.65;;;3.90;;
17631;SDS011;8934;51.194;17.150;2023-08-30T03:50:58;4.22;;;3.35;;
17631;SDS011;8934;51.194;17.150;2023-08-30T03:53:46;3.88;;;2.85;;
17631;SDS011;8934;51.194;17.150;2023-08-30T03:56:33;4.90;;;3.60;;
17631;SDS011;8934;51.194;17.150;2023-08-30T03:59:22;7.22;;;3.60;;
17631;SDS011;8934;51.194;17.150;2023-08-30T04:02:13;3.20;;;2.90;;
17631;SDS011;8934;51.194;17.150;2023-08-30T04:05:00;7.13;;;3.75;;
17631;SDS011;8934;51.194;17.150;2023-08-30T04:07:49;4.28;;;3.05;;
17631;SDS011;8934;51.194;17.150;2023-08-30T04:10:37;3.33;;;2.92;;
17631;SDS011;8934;51.194;17.150;2023-08-30T04:13:26;3.72;;;3.28;;
17631;SDS011;8934;51.194;17.150;2023-08-30T04:16:15;5.57;;;3.55;;
17631;SDS011;8934;51.194;17.150;2023-08-30T04:19:03;3.20;;;2.70;;
17631;SDS011;8934;51.194;17.150;2023-08-30T04:21:51;3.97;;;2.92;;
17631;SDS011;8934;51.194;17.150;2023-08-30T04:24:39;3.50;;;2.97;;
17631;SDS011;8934;51.194;17.150;2023-08-30T04:27:27;3.88;;;3.00;;
17631;SDS011;8934;51.194;17.150;2023-08-30T04:30:15;3.83;;;2.78;;
17631;SDS011;8934;51.194;17.150;2023-08-30T04:33:04;5.70;;;3.38;;
17631;SDS011;8934;51.194;17.150;2023-08-30T04:35:52;3.38;;;3.08;;
17631;SDS011;8934;51.194;17.150;2023-08-30T04:38:41;4.47;;;3.20;;
17631;SDS011;8934;51.194;17.150;2023-08-30T04:41:46;6.15;;;3.67;;
17631;SDS011;8934;51.194;17.150;2023-08-30T04:44:34;3.78;;;3.10;;
17631;SDS011;8934;51.194;17.150;2023-08-30T04:47:26;3.97;;;3.25;;
17631;SDS011;8934;51.194;17.150;2023-08-30T04:50:17;4.75;;;3.67;;
17631;SDS011;8934;51.194;17.150;2023-08-30T04:53:05;4.22;;;3.45;;
17631;SDS011;8934;51.194;17.150;2023-08-30T04:55:53;4.35;;;3.25;;
17631;SDS011;8934;51.194;17.150;2023-08-30T04:58:41;5.15;;;3.83;;
17631;SDS011;8934;51.194;17.150;2023-08-30T05:01:29;4.60;;;3.67;;
17631;SDS011;8934;51.194;17.150;2023-08-30T05:04:19;5.00;;;2.97;;
17631;SDS011;8934;51.194;17.150;2023-08-30T05:07:08;4.13;;;3.00;;
17631;SDS011;8934;51.194;17.150;2023-08-30T05:09:55;4.60;;;2.83;;
17631;SDS011;8934;51.194;17.150;2023-08-30T05:12:43;3.88;;;3.25;;
17631;SDS011;8934;51.194;17.150;2023-08-30T05:15:35;3.67;;;2.83;;
17631;SDS011;8934;51.194;17.150;2023-08-30T05:18:23;3.33;;;2.60;;
17631;SDS011;8934;51.194;17.150;2023-08-30T05:21:10;4.68;;;2.50;;
17631;SDS011;8934;51.194;17.150;2023-08-30T05:24:00;2.90;;;2.60;;
17631;SDS011;8934;51.194;17.150;2023-08-30T05:26:48;4.07;;;2.70;;
17631;SDS011;8934;51.194;17.150;2023-08-30T05:29:36;3.08;;;2.72;;
17631;SDS011;8934;51.194;17.150;2023-08-30T05:32:24;2.70;;;2.35;;
17631;SDS011;8934;51.194;17.150;2023-08-30T05:35:26;2.50;;;2.30;;
17631;SDS011;8934;51.194;17.150;2023-08-30T05:38:32;3.60;;;2.45;;
17631;SDS011;8934;51.194;17.150;2023-08-30T05:41:43;2.28;;;2.08;;
17631;SDS011;8934;51.194;17.150;2023-08-30T05:44:31;2.75;;;2.28;;
17631;SDS011;8934;51.194;17.150;2023-08-30T05:47:19;3.15;;;2.25;;
17631;SDS011;8934;51.194;17.150;2023-08-30T05:50:09;2.65;;;2.10;;
17631;SDS011;8934;51.194;17.150;2023-08-30T05:52:56;3.95;;;2.10;;
17631;SDS011;8934;51.194;17.150;2023-08-30T05:55:44;2.75;;;1.80;;
17631;SDS011;8934;51.194;17.150;2023-08-30T05:58:33;2.35;;;1.80;;
17631;SDS011;8934;51.194;17.150;2023-08-30T06:01:21;2.90;;;1.70;;
17631;SDS011;8934;51.194;17.150;2023-08-30T06:04:09;1.63;;;1.50;;
17631;SDS011;8934;51.194;17.150;2023-08-30T06:06:56;2.40;;;1.70;;
17631;SDS011;8934;51.194;17.150;2023-08-30T06:09:44;1.90;;;1.55;;
17631;SDS011;8934;51.194;17.150;2023-08-30T06:12:31;2.90;;;1.50;;
17631;SDS011;8934;51.194;17.150;2023-08-30T06:15:20;1.92;;;1.55;;
17631;SDS011;8934;51.194;17.150;2023-08-30T06:18:08;1.95;;;1.50;;
17631;SDS011;8934;51.194;17.150;2023-08-30T06:20:56;1.75;;;1.40;;
17631;SDS011;8934;51.194;17.150;2023-08-30T06:23:45;1.45;;;1.23;;
17631;SDS011;8934;51.194;17.150;2023-08-30T06:26:33;2.38;;;1.20;;
17631;SDS011;8934;51.194;17.150;2023-08-30T06:29:21;2.05;;;1.33;;
17631;SDS011;8934;51.194;17.150;2023-08-30T06:32:10;1.20;;;1.10;;
17631;SDS011;8934;51.194;17.150;2023-08-30T06:34:57;2.85;;;0.93;;
17631;SDS011;8934;51.194;17.150;2023-08-30T06:37:45;2.72;;;1.15;;
17631;SDS011;8934;51.194;17.150;2023-08-30T06:40:33;1.98;;;1.05;;
17631;SDS011;8934;51.194;17.150;2023-08-30T06:43:20;1.05;;;0.90;;
17631;SDS011;8934;51.194;17.150;2023-08-30T06:46:08;1.63;;;0.85;;
17631;SDS011;8934;51.194;17.150;2023-08-30T06:48:57;1.00;;;0.82;;
17631;SDS011;8934;51.194;17.150;2023-08-30T06:51:45;0.90;;;0.73;;
17631;SDS011;8934;51.194;17.150;2023-08-30T06:54:33;0.80;;;0.73;;
17631;SDS011;8934;51.194;17.150;2023-08-30T06:57:22;1.40;;;0.90;;
17631;SDS011;8934;51.194;17.150;2023-08-30T07:00:09;0.70;;;0.57;;
17631;SDS011;8934;51.194;17.150;2023-08-30T07:02:57;0.80;;;0.80;;
17631;SDS011;8934;51.194;17.150;2023-08-30T07:05:46;1.58;;;0.75;;
17631;SDS011;8934;51.194;17.150;2023-08-30T07:08:34;1.17;;;1.08;;
17631;SDS011;8934;51.194;17.150;2023-08-30T07:11:22;1.00;;;0.93;;
17631;SDS011;8934;51.194;17.150;2023-08-30T07:14:19;2.10;;;1.00;;
17631;SDS011;8934;51.194;17.150;2023-08-30T07:17:06;1.20;;;1.10;;
17631;SDS011;8934;51.194;17.150;2023-08-30T07:19:54;1.38;;;1.17;;
17631;SDS011;8934;51.194;17.150;2023-08-30T07:22:43;1.02;;;0.93;;
17631;SDS011;8934;51.194;17.150;2023-08-30T07:25:31;1.83;;;0.77;;
17631;SDS011;8934;51.194;17.150;2023-08-30T07:28:19;1.02;;;0.93;;
17631;SDS011;8934;51.194;17.150;2023-08-30T07:31:07;1.27;;;0.90;;
17631;SDS011;8934;51.194;17.150;2023-08-30T07:33:55;1.33;;;0.65;;
17631;SDS011;8934;51.194;17.150;2023-08-30T07:36:43;0.85;;;0.65;;
17631;SDS011;8934;51.194;17.150;2023-08-30T07:39:34;0.95;;;0.70;;
17631;SDS011;8934;51.194;17.150;2023-08-30T07:42:22;1.58;;;0.50;;
17631;SDS011;8934;51.194;17.150;2023-08-30T07:45:10;0.77;;;0.38;;
17631;SDS011;8934;51.194;17.150;2023-08-30T07:47:57;0.82;;;0.60;;
17631;SDS011;8934;51.194;17.150;2023-08-30T07:50:45;1.55;;;0.85;;
17631;SDS011;8934;51.194;17.150;2023-08-30T07:53:33;0.90;;;0.90;;
17631;SDS011;8934;51.194;17.150;2023-08-30T07:56:22;1.55;;;0.90;;
17631;SDS011;8934;51.194;17.150;2023-08-30T07:59:10;2.30;;;1.15;;
17631;SDS011;8934;51.194;17.150;2023-08-30T08:01:58;1.10;;;1.00;;
17631;SDS011;8934;51.194;17.150;2023-08-30T08:04:45;1.67;;;1.10;;
17631;SDS011;8934;51.194;17.150;2023-08-30T08:07:37;3.03;;;1.05;;
17631;SDS011;8934;51.194;17.150;2023-08-30T08:10:25;2.38;;;1.08;;
17631;SDS011;8934;51.194;17.150;2023-08-30T08:13:15;1.23;;;1.02;;
17631;SDS011;8934;51.194;17.150;2023-08-30T08:16:03;2.28;;;0.80;;
17631;SDS011;8934;51.194;17.150;2023-08-30T08:18:51;1.00;;;1.00;;
17631;SDS011;8934;51.194;17.150;2023-08-30T08:21:40;0.77;;;0.77;;
17631;SDS011;8934;51.194;17.150;2023-08-30T08:24:27;1.00;;;0.63;;
17631;SDS011;8934;51.194;17.150;2023-08-30T08:27:15;0.70;;;0.70;;
17631;SDS011;8934;51.194;17.150;2023-08-30T08:30:04;0.50;;;0.50;;
17631;SDS011;8934;51.194;17.150;2023-08-30T08:32:53;0.60;;;0.60;;
17631;SDS011;8934;51.194;17.150;2023-08-30T08:35:42;0.60;;;0.60;;
17631;SDS011;8934;51.194;17.150;2023-08-30T08:38:29;0.60;;;0.60;;
17631;SDS011;8934;51.194;17.150;2023-08-30T08:41:20;0.70;;;0.70;;
17631;SDS011;8934;51.194;17.150;2023-08-30T08:44:09;0.95;;;0.80;;
17631;SDS011;8934;51.194;17.150;2023-08-30T08:46:59;0.98;;;0.98;;
17631;SDS011;8934;51.194;17.150;2023-08-30T08:49:48;1.58;;;1.25;;
17631;SDS011;8934;51.194;17.150;2023-08-30T08:52:37;1.23;;;1.20;;
17631;SDS011;8934;51.194;17.150;2023-08-30T08:55:42;1.73;;;1.23;;
17631;SDS011;8934;51.194;17.150;2023-08-30T08:58:32;2.08;;;1.50;;
17631;SDS011;8934;51.194;17.150;2023-08-30T09:01:21;1.30;;;1.20;;
17631;SDS011;8934;51.194;17.150;2023-08-30T09:04:21;1.80;;;1.35;;
17631;SDS011;8934;51.194;17.150;2023-08-30T09:07:10;1.10;;;0.93;;
17631;SDS011;8934;51.194;17.150;2023-08-30T09:09:59;0.80;;;0.80;;
17631;SDS011;8934;51.194;17.150;2023-08-30T09:12:47;2.05;;;0.90;;
17631;SDS011;8934;51.194;17.150;2023-08-30T09:15:34;0.88;;;0.80;;
17631;SDS011;8934;51.194;17.150;2023-08-30T09:18:23;1.52;;;1.00;;
17631;SDS011;8934;51.194;17.150;2023-08-30T09:21:14;1.20;;;1.10;;
17631;SDS011;8934;51.194;17.150;2023-08-30T09:24:03;1.30;;;1.20;;
17631;SDS011;8934;51.194;17.150;2023-08-30T09:26:52;1.27;;;1.17;;
17631;SDS011;8934;51.194;17.150;2023-08-30T09:29:40;1.42;;;1.33;;
17631;SDS011;8934;51.194;17.150;2023-08-30T09:32:31;1.08;;;0.98;;
17631;SDS011;8934;51.194;17.150;2023-08-30T09:35:25;1.13;;;0.90;;
17631;SDS011;8934;51.194;17.150;2023-08-30T09:38:18;1.30;;;0.82;;
17631;SDS011;8934;51.194;17.150;2023-08-30T09:41:05;0.60;;;0.60;;
17631;SDS011;8934;51.194;17.150;2023-08-30T09:43:53;0.95;;;0.80;;
17631;SDS011;8934;51.194;17.150;2023-08-30T09:46:57;1.10;;;1.00;;
17631;SDS011;8934;51.194;17.150;2023-08-30T09:49:45;1.63;;;0.85;;
17631;SDS011;8934;51.194;17.150;2023-08-30T09:52:33;0.85;;;0.85;;
17631;SDS011;8934;51.194;17.150;2023-08-30T09:55:24;0.88;;;0.88;;
17631;SDS011;8934;51.194;17.150;2023-08-30T09:58:13;0.93;;;0.93;;
17631;SDS011;8934;51.194;17.150;2023-08-30T10:01:05;1.70;;;1.60;;
17631;SDS011;8934;51.194;17.150;2023-08-30T10:03:54;2.10;;;1.90;;
17631;SDS011;8934;51.194;17.150;2023-08-30T10:06:43;2.20;;;2.00;;
17631;SDS011;8934;51.194;17.150;2023-08-30T10:09:33;2.40;;;2.20;;
17631;SDS011;8934;51.194;17.150;2023-08-30T10:12:41;2.87;;;2.30;;
17631;SDS011;8934;51.194;17.150;2023-08-30T10:15:48;2.13;;;1.92;;
17631;SDS011;8934;51.194;17.150;2023-08-30T10:18:40;2.17;;;1.98;;
17631;SDS011;8934;51.194;17.150;2023-08-30T10:21:44;2.45;;;1.80;;
17631;SDS011;8934;51.194;17.150;2023-08-30T10:24:36;1.95;;;1.85;;
17631;SDS011;8934;51.194;17.150;2023-08-30T10:27:48;3.28;;;1.80;;
17631;SDS011;8934;51.194;17.150;2023-08-30T10:30:37;1.80;;;1.60;;
17631;SDS011;8934;51.194;17.150;2023-08-30T10:33:26;4.40;;;1.63;;
17631;SDS011;8934;51.194;17.150;2023-08-30T10:36:20;1.85;;;1.70;;
17631;SDS011;8934;51.194;17.150;2023-08-30T10:39:10;1.83;;;1.50;;
17631;SDS011;8934;51.194;17.150;2023-08-30T10:41:59;1.70;;;1.60;;
17631;SDS011;8934;51.194;17.150;2023-08-30T10:44:48;2.17;;;2.00;;
17631;SDS011;8934;51.194;17.150;2023-08-30T10:47:56;2.13;;;1.92;;
17631;SDS011;8934;51.194;17.150;2023-08-30T10:50:46;2.40;;;2.20;;
17631;SDS011;8934;51.194;17.150;2023-08-30T10:53:33;2.75;;;1.83;;
17631;SDS011;8934;51.194;17.150;2023-08-30T10:56:26;2.50;;;2.30;;
17631;SDS011;8934;51.194;17.150;2023-08-30T10:59:15;2.55;;;2.35;;
17631;SDS011;8934;51.194;17.150;2023-08-30T11:02:06;2.15;;;2.05;;
17631;SDS011;8934;51.194;17.150;2023-08-30T11:04:54;2.88;;;2.00;;
17631;SDS011;8934;51.194;17.150;2023-08-30T11:07:42;2.20;;;2.00;;
17631;SDS011;8934;51.194;17.150;2023-08-30T11:10:30;2.45;;;2.25;;
17631;SDS011;8934;51.194;17.150;2023-08-30T11:13:18;3.80;;;2.25;;
17631;SDS011;8934;51.194;17.150;2023-08-30T11:16:08;3.22;;;2.92;;
17631;SDS011;8934;51.194;17.150;2023-08-30T11:18:57;3.53;;;3.20;;
17631;SDS011;8934;51.194;17.150;2023-08-30T11:21:44;3.53;;;3.22;;
17631;SDS011;8934;51.194;17.150;2023-08-30T11:24:33;4.68;;;3.35;;
17631;SDS011;8934;51.194;17.150;2023-08-30T11:27:21;4.13;;;3.72;;
17631;SDS011;8934;51.194;17.150;2023-08-30T11:30:09;3.60;;;3.30;;
17631;SDS011;8934;51.194;17.150;2023-08-30T11:32:58;3.58;;;3.28;;
17631;SDS011;8934;51.194;17.150;2023-08-30T11:35:48;3.47;;;3.17;;
17631;SDS011;8934;51.194;17.150;2023-08-30T11:38:39;2.88;;;2.67;;
17631;SDS011;8934;51.194;17.150;2023-08-30T11:41:27;2.45;;;1.92;;
17631;SDS011;8934;51.194;17.150;2023-08-30T11:44:15;2.28;;;2.17;;
17631;SDS011;8934;51.194;17.150;2023-08-30T11:47:03;4.25;;;2.00;;
17631;SDS011;8934;51.194;17.150;2023-08-30T11:49:52;2.30;;;2.10;;
17631;SDS011;8934;51.194;17.150;2023-08-30T11:52:43;1.92;;;1.58;;
17631;SDS011;8934;51.194;17.150;2023-08-30T11:55:31;1.85;;;1.45;;
17631;SDS011;8934;51.194;17.150;2023-08-30T11:58:18;1.70;;;1.60;;
17631;SDS011;8934;51.194;17.150;2023-08-30T12:01:06;1.60;;;1.50;;
17631;SDS011;8934;51.194;17.150;2023-08-30T12:03:55;1.52;;;1.42;;
17631;SDS011;8934;51.194;17.150;2023-08-30T12:06:43;2.53;;;1.40;;
17631;SDS011;8934;51.194;17.150;2023-08-30T12:09:32;1.75;;;1.50;;
17631;SDS011;8934;51.194;17.150;2023-08-30T12:12:22;2.45;;;1.40;;
17631;SDS011;8934;51.194;17.150;2023-08-30T12:15:10;1.30;;;1.20;;
17631;SDS011;8934;51.194;17.150;2023-08-30T12:18:05;1.33;;;1.10;;
17631;SDS011;8934;51.194;17.150;2023-08-30T12:20:54;1.50;;;1.02;;
17631;SDS011;8934;51.194;17.150;2023-08-30T12:23:42;0.70;;;0.70;;
17631;SDS011;8934;51.194;17.150;2023-08-30T12:26:32;0.70;;;0.70;;
17631;SDS011;8934;51.194;17.150;2023-08-30T12:29:20;0.85;;;0.70;;
17631;SDS011;8934;51.194;17.150;2023-08-30T12:32:08;0.98;;;0.98;;
17631;SDS011;8934;51.194;17.150;2023-08-30T12:34:55;0.93;;;0.70;;
17631;SDS011;8934;51.194;17.150;2023-08-30T12:37:43;0.73;;;0.73;;
17631;SDS011;8934;51.194;17.150;2023-08-30T12:40:31;0.70;;;0.70;;
17631;SDS011;8934;51.194;17.150;2023-08-30T12:43:20;1.45;;;0.88;;
17631;SDS011;8934;51.194;17.150;2023-08-30T12:46:08;0.50;;;0.50;;
17631;SDS011;8934;51.194;17.150;2023-08-30T12:48:56;1.42;;;0.75;;
17631;SDS011;8934;51.194;17.150;2023-08-30T12:51:44;1.63;;;0.65;;
17631;SDS011;8934;51.194;17.150;2023-08-30T12:54:32;0.55;;;0.55;;
17631;SDS011;8934;51.194;17.150;2023-08-30T12:57:20;0.60;;;0.60;;
17631;SDS011;8934;51.194;17.150;2023-08-30T13:00:10;0.75;;;0.75;;
17631;SDS011;8934;51.194;17.150;2023-08-30T13:02:58;0.57;;;0.40;;
17631;SDS011;8934;51.194;17.150;2023-08-30T13:05:46;0.95;;;0.70;;
17631;SDS011;8934;51.194;17.150;2023-08-30T13:08:33;0.65;;;0.65;;
17631;SDS011;8934;51.194;17.150;2023-08-30T13:11:21;0.70;;;0.57;;
17631;SDS011;8934;51.194;17.150;2023-08-30T13:14:12;2.05;;;0.68;;
17631;SDS011;8934;51.194;17.150;2023-08-30T13:17:01;0.75;;;0.68;;
17631;SDS011;8934;51.194;17.150;2023-08-30T13:19:49;1.15;;;0.70;;
17631;SDS011;8934;51.194;17.150;2023-08-30T13:22:37;1.45;;;0.70;;
17631;SDS011;8934;51.194;17.150;2023-08-30T13:25:25;0.60;;;0.60;;
17631;SDS011;8934;51.194;17.150;2023-08-30T13:28:12;0.70;;;0.70;;
17631;SDS011;8934;51.194;17.150;2023-08-30T13:31:00;0.70;;;0.70;;
17631;SDS011;8934;51.194;17.150;2023-08-30T13:33:50;0.68;;;0.65;;
17631;SDS011;8934;51.194;17.150;2023-08-30T13:36:38;0.95;;;0.73;;
17631;SDS011;8934;51.194;17.150;2023-08-30T13:39:26;0.80;;;0.80;;
17631;SDS011;8934;51.194;17.150;2023-08-30T13:42:14;0.70;;;0.70;;
17631;SDS011;8934;51.194;17.150;2023-08-30T13:45:01;1.77;;;0.80;;
17631;SDS011;8934;51.194;17.150;2023-08-30T13:47:50;1.35;;;0.85;;
17631;SDS011;8934;51.194;17.150;2023-08-30T13:50:42;0.60;;;0.60;;
17631;SDS011;8934;51.194;17.150;2023-08-30T13:53:29;1.00;;;0.98;;
17631;SDS011;8934;51.194;17.150;2023-08-30T13:56:17;0.60;;;0.60;;
17631;SDS011;8934;51.194;17.150;2023-08-30T13:59:05;0.73;;;0.73;;
17631;SDS011;8934;51.194;17.150;2023-08-30T14:01:52;1.30;;;0.80;;
17631;SDS011;8934;51.194;17.150;2023-08-30T14:04:40;0.85;;;0.73;;
17631;SDS011;8934;51.194;17.150;2023-08-30T14:07:32;1.63;;;0.88;;
17631;SDS011;8934;51.194;17.150;2023-08-30T14:10:20;0.85;;;0.85;;
17631;SDS011;8934;51.194;17.150;2023-08-30T14:13:08;0.70;;;0.65;;
17631;SDS011;8934;51.194;17.150;2023-08-30T14:15:56;1.20;;;0.70;;
17631;SDS011;8934;51.194;17.150;2023-08-30T14:18:44;1.15;;;0.70;;
17631;SDS011;8934;51.194;17.150;2023-08-30T14:21:32;2.08;;;0.80;;
17631;SDS011;8934;51.194;17.150;2023-08-30T14:24:21;1.13;;;0.82;;
17631;SDS011;8934;51.194;17.150;2023-08-30T14:27:09;1.55;;;1.40;;
17631;SDS011;8934;51.194;17.150;2023-08-30T14:29:57;1.38;;;1.27;;
17631;SDS011;8934;51.194;17.150;2023-08-30T14:32:46;1.30;;;1.17;;
17631;SDS011;8934;51.194;17.150;2023-08-30T14:35:33;2.63;;;1.27;;
17631;SDS011;8934;51.194;17.150;2023-08-30T14:38:21;1.30;;;1.15;;
17631;SDS011;8934;51.194;17.150;2023-08-30T14:41:11;1.13;;;0.90;;
17631;SDS011;8934;51.194;17.150;2023-08-30T14:44:01;0.70;;;0.60;;
17631;SDS011;8934;51.194;17.150;2023-08-30T14:46:50;1.13;;;1.00;;
17631;SDS011;8934;51.194;17.150;2023-08-30T14:49:38;1.27;;;0.80;;
17631;SDS011;8934;51.194;17.150;2023-08-30T14:52:25;1.27;;;0.63;;
17631;SDS011;8934;51.194;17.150;2023-08-30T14:55:13;2.95;;;0.93;;
17631;SDS011;8934;51.194;17.150;2023-08-30T14:58:02;0.80;;;0.80;;
17631;SDS011;8934;51.194;17.150;2023-08-30T15:00:50;1.65;;;1.10;;
17631;SDS011;8934;51.194;17.150;2023-08-30T15:03:38;1.98;;;1.00;;
17631;SDS011;8934;51.194;17.150;2023-08-30T15:06:26;1.30;;;0.95;;
17631;SDS011;8934;51.194;17.150;2023-08-30T15:09:14;2.05;;;0.77;;
17631;SDS011;8934;51.194;17.150;2023-08-30T15:12:03;1.42;;;1.05;;
17631;SDS011;8934;51.194;17.150;2023-08-30T15:14:53;1.40;;;1.00;;
17631;SDS011;8934;51.194;17.150;2023-08-30T15:17:41;1.25;;;0.85;;
17631;SDS011;8934;51.194;17.150;2023-08-30T15:20:29;1.60;;;1.00;;
17631;SDS011;8934;51.194;17.150;2023-08-30T15:23:16;1.10;;;0.85;;
17631;SDS011;8934;51.194;17.150;2023-08-30T15:26:04;2.00;;;1.08;;
17631;SDS011;8934;51.194;17.150;2023-08-30T15:28:52;1.00;;;0.70;;
17631;SDS011;8934;51.194;17.150;2023-08-30T15:31:41;0.95;;;0.90;;
17631;SDS011;8934;51.194;17.150;2023-08-30T15:34:31;1.42;;;0.85;;
17631;SDS011;8934;51.194;17.150;2023-08-30T15:37:18;1.38;;;1.00;;
17631;SDS011;8934;51.194;17.150;2023-08-30T15:40:06;1.23;;;1.00;;
17631;SDS011;8934;51.194;17.150;2023-08-30T15:42:55;1.60;;;1.25;;
17631;SDS011;8934;51.194;17.150;2023-08-30T15:45:43;2.38;;;1.08;;
17631;SDS011;8934;51.194;17.150;2023-08-30T15:48:35;1.40;;;1.17;;
17631;SDS011;8934;51.194;17.150;2023-08-30T15:51:23;1.00;;;1.00;;
17631;SDS011;8934;51.194;17.150;2023-08-30T15:54:11;2.28;;;1.50;;
17631;SDS011;8934;51.194;17.150;2023-08-30T15:56:58;1.25;;;1.15;;
17631;SDS011;8934;51.194;17.150;2023-08-30T15:59:46;1.42;;;1.23;;
17631;SDS011;8934;51.194;17.150;2023-08-30T16:02:34;2.20;;;1.88;;
17631;SDS011;8934;51.194;17.150;2023-08-30T16:05:23;2.95;;;1.90;;
17631;SDS011;8934;51.194;17.150;2023-08-30T16:08:11;1.90;;;1.63;;
17631;SDS011;8934;51.194;17.150;2023-08-30T16:10:59;1.83;;;1.73;;
17631;SDS011;8934;51.194;17.150;2023-08-30T16:13:47;1.77;;;1.60;;
17631;SDS011;8934;51.194;17.150;2023-08-30T16:16:36;2.42;;;1.80;;
17631;SDS011;8934;51.194;17.150;2023-08-30T16:19:26;3.10;;;2.08;;
17631;SDS011;8934;51.194;17.150;2023-08-30T16:22:15;2.20;;;1.85;;
17631;SDS011;8934;51.194;17.150;2023-08-30T16:25:03;1.67;;;1.58;;
17631;SDS011;8934;51.194;17.150;2023-08-30T16:27:52;1.90;;;1.80;;
17631;SDS011;8934;51.194;17.150;2023-08-30T16:30:40;1.98;;;1.80;;
17631;SDS011;8934;51.194;17.150;2023-08-30T16:33:27;2.33;;;2.03;;
17631;SDS011;8934;51.194;17.150;2023-08-30T16:36:15;2.63;;;2.28;;
17631;SDS011;8934;51.194;17.150;2023-08-30T16:39:04;2.55;;;2.13;;
17631;SDS011;8934;51.194;17.150;2023-08-30T16:41:52;2.13;;;1.92;;
17631;SDS011;8934;51.194;17.150;2023-08-30T16:44:40;3.90;;;2.05;;
17631;SDS011;8934;51.194;17.150;2023-08-30T16:47:27;2.50;;;2.22;;
17631;SDS011;8934;51.194;17.150;2023-08-30T16:50:18;2.35;;;2.15;;
17631;SDS011;8934;51.194;17.150;2023-08-30T16:53:06;2.65;;;2.45;;
17631;SDS011;8934;51.194;17.150;2023-08-30T16:55:56;2.63;;;2.42;;
17631;SDS011;8934;51.194;17.150;2023-08-30T16:58:47;2.50;;;2.30;;